Time;durP1;ratioP1;P1;durP2;ratioP2;P2;SDS_P1;SDS_P2;PMS_P1;PMS_P2;Temp;Humidity;BMP_temperature;BMP_pressure;BME280_temperature;BME280_humidity;BME280_pressure;Samples;Min_cycle;Max_cycle;Signal;HPM_P1;HPM_P2
2022/04/01 00:00:22;;;;;;;7.18;3.20;;;;;;;;;;5089494;28;20481;-80
2022/04/01 00:02:48;;;;;;;6.45;3.45;;;;;;;;;;5091733;28;20052;-77
2022/04/01 00:05:15;;;;;;;6.53;3.60;;;;;;;;;;5107976;28;20056;-79
2022/04/01 00:07:42;;;;;;;5.60;2.78;;;;;;;;;;5102187;27;20063;-77
2022/04/01 00:10:09;;;;;;;7.80;3.25;;;;;;;;;;5105541;28;20052;-77
2022/04/01 00:12:46;;;;;;;9.35;3.55;;;;;;;;;;5103411;27;20578;-77
2022/04/01 00:15:13;;;;;;;7.45;3.67;;;;;;;;;;5091555;28;20048;-76
2022/04/01 00:17:40;;;;;;;6.53;3.28;;;;;;;;;;5107221;28;20896;-76
2022/04/01 00:20:07;;;;;;;7.95;3.65;;;;;;;;;;5107288;28;20052;-76
2022/04/01 00:22:33;;;;;;;7.88;3.55;;;;;;;;;;5089609;28;20048;-78
2022/04/01 00:24:59;;;;;;;6.82;3.35;;;;;;;;;;5102440;27;20088;-78
2022/04/01 00:27:26;;;;;;;8.45;3.95;;;;;;;;;;5095242;28;20056;-77
2022/04/01 00:29:52;;;;;;;7.47;3.45;;;;;;;;;;5105651;27;20078;-77
2022/04/01 00:32:19;;;;;;;6.90;3.20;;;;;;;;;;5089467;28;20133;-77
2022/04/01 00:34:45;;;;;;;7.57;3.90;;;;;;;;;;5087041;28;20114;-77
2022/04/01 00:37:12;;;;;;;7.97;3.67;;;;;;;;;;5076040;28;20067;-76
2022/04/01 00:39:38;;;;;;;6.57;3.47;;;;;;;;;;5102383;28;20060;-77
2022/04/01 00:42:05;;;;;;;6.70;3.50;;;;;;;;;;5102889;27;20448;-76
2022/04/01 00:44:32;;;;;;;6.45;3.33;;;;;;;;;;5087047;28;20561;-77
2022/04/01 00:47:03;;;;;;;7.35;3.70;;;;;;;;;;5114365;28;20060;-77
2022/04/01 00:49:30;;;;;;;;;;;;;;;;;;5114028;28;20056;-76
2022/04/01 00:51:57;;;;;;;6.28;3.22;;;;;;;;;;5113806;28;42225;-78
2022/04/01 00:54:24;;;;;;;8.70;3.45;;;;;;;;;;5093103;28;20106;-77
2022/04/01 00:56:50;;;;;;;6.82;3.65;;;;;;;;;;5109236;28;20094;-76
2022/04/01 00:59:17;;;;;;;7.80;3.88;;;;;;;;;;5111660;28;20880;-76
2022/04/01 01:01:43;;;;;;;6.85;3.47;;;;;;;;;;5095850;28;20102;-82
2022/04/01 01:04:14;;;;;;;6.32;3.42;;;;;;;;;;5109049;28;20552;-76
2022/04/01 01:06:42;;;;;;;8.27;3.97;;;;;;;;;;5094783;28;20076;-75
2022/04/01 01:09:09;;;;;;;6.93;3.80;;;;;;;;;;5113089;28;20101;-76
2022/04/01 01:11:35;;;;;;;6.25;3.63;;;;;;;;;;5116211;28;20052;-78
2022/04/01 01:14:03;;;;;;;6.00;3.38;;;;;;;;;;5114178;28;20579;-79
2022/04/01 01:16:29;;;;;;;6.53;3.42;;;;;;;;;;5113935;28;20048;-76
2022/04/01 01:19:07;;;;;;;6.97;3.72;;;;;;;;;;5111007;28;20064;-76
2022/04/01 01:21:34;;;;;;;8.27;3.83;;;;;;;;;;5095848;28;20048;-78
2022/04/01 01:24:01;;;;;;;6.55;3.70;;;;;;;;;;5111044;28;20047;-77
2022/04/01 01:26:28;;;;;;;7.32;3.78;;;;;;;;;;5095412;28;20067;-79
2022/04/01 01:28:55;;;;;;;8.43;3.83;;;;;;;;;;5113813;28;20059;-76
2022/04/01 01:31:21;;;;;;;7.03;3.78;;;;;;;;;;5113763;27;20102;-77
2022/04/01 01:33:48;;;;;;;8.18;3.65;;;;;;;;;;5097387;27;20058;-78
2022/04/01 01:36:15;;;;;;;7.50;3.63;;;;;;;;;;5095339;28;20082;-76
2022/04/01 01:38:41;;;;;;;6.28;3.60;;;;;;;;;;5112756;28;20121;-76
2022/04/01 01:41:08;;;;;;;9.90;4.20;;;;;;;;;;5113730;28;20056;-80
2022/04/01 01:43:37;;;;;;;6.38;3.75;;;;;;;;;;5113415;28;20052;-78
2022/04/01 01:46:03;;;;;;;8.93;3.78;;;;;;;;;;5112689;27;20505;-80
2022/04/01 01:48:30;;;;;;;6.15;3.33;;;;;;;;;;5095414;28;20059;-80
2022/04/01 01:56:26;;;;;;;8.93;3.72;;;;;;;;;;5099169;28;20473;-78
2022/04/01 01:58:54;;;;;;;7.60;3.70;;;;;;;;;;5090974;28;20105;-80
2022/04/01 02:01:21;;;;;;;8.30;4.18;;;;;;;;;;5110001;28;20056;-78
2022/04/01 02:03:48;;;;;;;7.38;3.50;;;;;;;;;;5091120;28;20052;-80
2022/04/01 02:06:14;;;;;;;6.05;3.25;;;;;;;;;;5092072;28;20157;-77
2022/04/01 02:08:41;;;;;;;7.20;3.30;;;;;;;;;;5091123;28;20052;-78
2022/04/01 02:11:08;;;;;;;6.15;3.10;;;;;;;;;;5108769;28;20054;-79
2022/04/01 02:13:34;;;;;;;7.28;3.45;;;;;;;;;;5091777;28;20518;-77
2022/04/01 02:16:01;;;;;;;7.90;3.47;;;;;;;;;;5107174;27;20096;-81
2022/04/01 02:18:27;;;;;;;8.05;3.28;;;;;;;;;;5130001;27;20583;-79
2022/04/01 02:20:54;;;;;;;6.30;3.20;;;;;;;;;;5110428;27;20515;-77
2022/04/01 02:23:20;;;;;;;6.90;3.60;;;;;;;;;;5091557;28;20493;-76
2022/04/01 02:25:47;;;;;;;6.80;3.58;;;;;;;;;;5091812;28;20400;-78
2022/04/01 02:28:13;;;;;;;7.05;3.30;;;;;;;;;;5117019;27;20101;-78
2022/04/01 02:30:40;;;;;;;6.70;3.60;;;;;;;;;;5108574;27;20091;-78
2022/04/01 02:33:07;;;;;;;6.70;3.38;;;;;;;;;;5090439;28;20101;-79
2022/04/01 02:35:34;;;;;;;7.88;3.33;;;;;;;;;;5108305;28;20052;-79
2022/04/01 02:38:01;;;;;;;7.25;3.45;;;;;;;;;;5107374;27;20056;-80
2022/04/01 02:40:28;;;;;;;6.70;3.17;;;;;;;;;;5110758;27;20558;-78
2022/04/01 02:42:54;;;;;;;6.60;3.17;;;;;;;;;;5091227;28;20056;-77
2022/04/01 02:45:21;;;;;;;6.70;2.95;;;;;;;;;;5091517;28;20063;-79
2022/04/01 02:47:48;;;;;;;5.90;2.80;;;;;;;;;;5108927;28;20083;-79
2022/04/01 02:50:14;;;;;;;10.40;3.80;;;;;;;;;;5090434;28;20060;-80
2022/04/01 02:52:41;;;;;;;6.90;3.17;;;;;;;;;;5090519;28;20048;-79
2022/04/01 02:55:08;;;;;;;6.60;3.22;;;;;;;;;;5089185;28;20048;-77
2022/04/01 02:57:34;;;;;;;6.32;2.85;;;;;;;;;;5090260;28;20114;-78
2022/04/01 03:00:00;;;;;;;5.78;2.92;;;;;;;;;;5089172;28;20498;-76
2022/04/01 03:02:27;;;;;;;6.35;3.40;;;;;;;;;;5108535;28;20800;-76
2022/04/01 03:04:53;;;;;;;5.80;3.25;;;;;;;;;;5109108;28;20063;-80
2022/04/01 03:07:20;;;;;;;8.07;3.20;;;;;;;;;;5109094;28;20102;-78
2022/04/01 03:09:46;;;;;;;5.75;2.95;;;;;;;;;;5090570;28;20052;-78
2022/04/01 03:12:13;;;;;;;6.05;3.10;;;;;;;;;;5090577;28;20055;-77
2022/04/01 03:14:39;;;;;;;5.93;3.03;;;;;;;;;;5094484;28;20475;-79
2022/04/01 03:17:08;;;;;;;5.47;2.60;;;;;;;;;;5088698;28;20073;-78
2022/04/01 03:19:35;;;;;;;5.85;3.00;;;;;;;;;;5085520;28;20055;-78
2022/04/01 03:22:02;;;;;;;5.22;2.50;;;;;;;;;;5090743;28;20101;-77
2022/04/01 03:24:28;;;;;;;7.10;3.22;;;;;;;;;;5109206;28;20553;-81
2022/04/01 03:26:54;;;;;;;6.75;3.15;;;;;;;;;;5108708;28;20056;-80
2022/04/01 03:29:21;;;;;;;6.38;3.03;;;;;;;;;;5088423;27;20102;-79
2022/04/01 03:31:47;;;;;;;6.60;2.97;;;;;;;;;;5108587;28;20481;-81
2022/04/01 03:34:14;;;;;;;5.97;3.10;;;;;;;;;;5107770;28;20048;-78
2022/04/01 03:36:40;;;;;;;10.13;3.13;;;;;;;;;;5108856;28;20094;-77
2022/04/01 03:39:07;;;;;;;6.88;3.10;;;;;;;;;;5090227;28;20110;-77
2022/04/01 03:41:33;;;;;;;6.78;3.05;;;;;;;;;;5108699;28;20847;-81
2022/04/01 03:44:00;;;;;;;7.85;3.67;;;;;;;;;;5092864;27;20055;-78
2022/04/01 03:46:44;;;;;;;6.55;3.03;;;;;;;;;;5107065;27;20052;-81
2022/04/01 03:49:12;;;;;;;7.13;3.17;;;;;;;;;;5080525;28;20529;-77
2022/04/01 03:51:39;;;;;;;5.88;2.80;;;;;;;;;;5090771;28;20520;-78
2022/04/01 03:54:05;;;;;;;7.10;3.30;;;;;;;;;;5089922;28;20052;-78
2022/04/01 03:56:34;;;;;;;6.38;3.25;;;;;;;;;;5089491;28;20871;-77
2022/04/01 03:59:01;;;;;;;6.60;3.10;;;;;;;;;;5089921;28;20556;-78
2022/04/01 04:01:28;;;;;;;5.35;2.85;;;;;;;;;;5089961;28;20101;-81
2022/04/01 04:03:56;;;;;;;6.93;2.70;;;;;;;;;;5089916;28;20088;-80
2022/04/01 04:06:22;;;;;;;6.35;3.20;;;;;;;;;;5107739;27;20052;-78
2022/04/01 04:08:50;;;;;;;6.80;2.85;;;;;;;;;;5108044;28;20593;-77
2022/04/01 04:11:18;;;;;;;5.47;2.75;;;;;;;;;;5107836;27;20052;-80
2022/04/01 04:13:45;;;;;;;5.65;2.90;;;;;;;;;;5107672;28;20052;-78
2022/04/01 04:16:18;;;;;;;7.20;3.05;;;;;;;;;;5089750;28;20947;-78
2022/04/01 04:18:50;;;;;;;6.57;3.08;;;;;;;;;;5117296;27;20059;-77
2022/04/01 04:21:29;;;;;;;9.50;3.33;;;;;;;;;;5106267;28;20532;-79
2022/04/01 04:23:57;;;;;;;8.00;3.17;;;;;;;;;;5107605;28;20109;-79
2022/04/01 04:26:24;;;;;;;7.50;3.63;;;;;;;;;;5089535;28;20320;-80
2022/04/01 04:29:00;;;;;;;6.43;2.88;;;;;;;;;;5107572;28;20056;-78
2022/04/01 04:31:30;;;;;;;6.45;3.22;;;;;;;;;;5107640;28;20052;-78
2022/04/01 04:34:02;;;;;;;8.27;3.50;;;;;;;;;;5083855;28;20084;-79
2022/04/01 04:36:35;;;;;;;7.05;3.25;;;;;;;;;;5089399;28;20052;-78
2022/04/01 04:39:03;;;;;;;6.90;3.05;;;;;;;;;;5107637;28;20163;-78
2022/04/01 04:41:30;;;;;;;7.07;3.65;;;;;;;;;;5089519;28;20755;-78
2022/04/01 04:43:58;;;;;;;5.85;2.58;;;;;;;;;;5106876;28;20052;-78
2022/04/01 04:46:25;;;;;;;6.82;3.00;;;;;;;;;;5107577;28;20056;-78
2022/04/01 04:48:54;;;;;;;7.80;3.15;;;;;;;;;;5089008;28;20102;-78
2022/04/01 04:51:24;;;;;;;7.90;3.45;;;;;;;;;;5101710;27;20093;-78
2022/04/01 04:53:50;;;;;;;5.93;3.07;;;;;;;;;;5094409;28;20052;-76
2022/04/01 04:56:17;;;;;;;6.80;2.60;;;;;;;;;;5089168;28;20102;-79
2022/04/01 04:58:44;;;;;;;10.55;3.80;;;;;;;;;;5092309;28;20097;-79
2022/04/01 05:01:16;;;;;;;5.63;2.75;;;;;;;;;;5106797;28;20110;-77
2022/04/01 05:04:01;;;;;;;8.38;3.53;;;;;;;;;;5107533;28;20056;-77
2022/04/01 05:06:29;;;;;;;8.18;3.30;;;;;;;;;;5069125;28;20059;-78
2022/04/01 05:08:56;;;;;;;6.88;2.92;;;;;;;;;;5100802;28;20555;-80
2022/04/01 05:11:58;;;;;;;7.30;3.47;;;;;;;;;;5107667;28;20125;-79
2022/04/01 05:14:51;;;;;;;7.30;3.33;;;;;;;;;;5065836;28;20143;-79
2022/04/01 05:17:25;;;;;;;8.13;3.70;;;;;;;;;;5085222;28;20104;-80
2022/04/01 05:19:59;;;;;;;5.72;3.00;;;;;;;;;;5103443;28;20519;-78
2022/04/01 05:22:34;;;;;;;6.40;2.88;;;;;;;;;;5088400;28;20048;-78
2022/04/01 05:25:00;;;;;;;7.60;3.50;;;;;;;;;;5092273;28;20060;-78
2022/04/01 05:27:32;;;;;;;8.05;3.30;;;;;;;;;;5091507;28;20052;-79
2022/04/01 05:30:13;;;;;;;6.85;3.20;;;;;;;;;;5088837;28;20039;-79
2022/04/01 05:32:41;;;;;;;7.30;3.55;;;;;;;;;;5105439;28;20059;-79
2022/04/01 05:35:08;;;;;;;6.43;3.17;;;;;;;;;;5110575;28;20507;-79
2022/04/01 05:37:35;;;;;;;5.70;3.00;;;;;;;;;;5109544;28;20110;-78
2022/04/01 05:40:05;;;;;;;6.15;3.45;;;;;;;;;;5109217;28;20052;-79
2022/04/01 05:42:32;;;;;;;6.88;2.83;;;;;;;;;;5095643;28;20101;-80
2022/04/01 05:44:59;;;;;;;7.75;3.08;;;;;;;;;;5111501;28;20048;-78
2022/04/01 05:47:27;;;;;;;6.85;3.13;;;;;;;;;;5109053;28;20090;-81
2022/04/01 05:49:55;;;;;;;6.30;2.92;;;;;;;;;;5105101;28;20056;-79
2022/04/01 05:52:22;;;;;;;8.55;3.40;;;;;;;;;;5109968;27;20573;-80
2022/04/01 05:54:51;;;;;;;7.50;3.55;;;;;;;;;;5093890;28;20051;-79
2022/04/01 05:57:18;;;;;;;6.47;3.33;;;;;;;;;;5102832;27;20558;-81
2022/04/01 05:59:45;;;;;;;7.10;3.30;;;;;;;;;;5109859;28;20058;-79
2022/04/01 06:02:12;;;;;;;6.43;2.70;;;;;;;;;;5093397;28;20043;-79
2022/04/01 06:04:47;;;;;;;9.75;3.25;;;;;;;;;;5090244;28;20096;-79
2022/04/01 06:07:20;;;;;;;6.63;3.08;;;;;;;;;;5100361;28;20509;-80
2022/04/01 06:10:05;;;;;;;7.47;3.20;;;;;;;;;;5110249;28;20049;-78
2022/04/01 06:13:01;;;;;;;8.57;3.05;;;;;;;;;;5092108;28;20110;-78
2022/04/01 06:15:36;;;;;;;5.95;2.78;;;;;;;;;;5017673;28;20616;-79
2022/04/01 06:18:07;;;;;;;8.35;3.83;;;;;;;;;;5094875;28;20076;-78
2022/04/01 06:20:36;;;;;;;6.68;2.95;;;;;;;;;;5087967;28;20061;-78
2022/04/01 06:23:18;;;;;;;7.43;3.30;;;;;;;;;;5090099;28;20098;-79
2022/04/01 06:25:47;;;;;;;6.60;3.13;;;;;;;;;;5100285;28;20576;-78
2022/04/01 06:28:16;;;;;;;7.68;3.13;;;;;;;;;;5110849;28;20059;-81
2022/04/01 06:30:44;;;;;;;10.15;3.63;;;;;;;;;;5110651;28;20052;-78
2022/04/01 06:33:11;;;;;;;8.40;3.40;;;;;;;;;;5110368;27;20525;-79
2022/04/01 06:35:47;;;;;;;6.80;2.97;;;;;;;;;;5104074;28;20076;-79
2022/04/01 06:38:21;;;;;;;7.80;3.42;;;;;;;;;;5110144;27;20503;-78
2022/04/01 06:40:54;;;;;;;6.63;3.00;;;;;;;;;;5094670;28;20064;-79
2022/04/01 06:43:21;;;;;;;9.45;3.22;;;;;;;;;;5093449;28;20056;-80
2022/04/01 06:45:48;;;;;;;7.55;3.13;;;;;;;;;;5092533;28;20044;-79
2022/04/01 06:48:14;;;;;;;8.38;3.45;;;;;;;;;;5092665;28;20056;-80
2022/04/01 06:50:42;;;;;;;7.55;3.10;;;;;;;;;;5091929;28;20477;-80
2022/04/01 06:53:09;;;;;;;6.10;3.03;;;;;;;;;;5108733;28;20056;-79
2022/04/01 06:55:42;;;;;;;8.15;3.08;;;;;;;;;;5091869;28;20213;-78
2022/04/01 06:58:11;;;;;;;7.68;3.25;;;;;;;;;;5108725;28;20560;-78
2022/04/01 07:00:40;;;;;;;7.35;2.65;;;;;;;;;;5109733;28;20136;-80
2022/04/01 07:03:07;;;;;;;7.03;2.58;;;;;;;;;;5094739;28;20105;-79
2022/04/01 07:05:35;;;;;;;5.65;2.28;;;;;;;;;;5083748;28;20059;-80
2022/04/01 07:08:02;;;;;;;5.57;2.38;;;;;;;;;;5109187;28;20502;-78
2022/04/01 07:10:28;;;;;;;6.78;2.40;;;;;;;;;;5109819;28;20056;-81
2022/04/01 07:12:58;;;;;;;6.28;2.75;;;;;;;;;;5110174;28;20434;-78
2022/04/01 07:15:24;;;;;;;6.05;2.13;;;;;;;;;;5110119;28;20066;-78
2022/04/01 07:17:51;;;;;;;7.15;2.38;;;;;;;;;;5091362;28;20055;-79
2022/04/01 07:20:20;;;;;;;6.07;2.17;;;;;;;;;;5107857;28;20105;-80
2022/04/01 07:22:48;;;;;;;6.35;2.35;;;;;;;;;;5090988;28;20058;-80
2022/04/01 07:25:15;;;;;;;5.80;2.40;;;;;;;;;;5108517;28;20106;-81
2022/04/01 07:27:41;;;;;;;4.15;1.95;;;;;;;;;;5090888;28;20058;-80
2022/04/01 07:30:08;;;;;;;5.97;2.20;;;;;;;;;;5109960;28;20071;-79
2022/04/01 07:32:36;;;;;;;7.55;2.40;;;;;;;;;;5091343;28;20044;-78
2022/04/01 07:35:04;;;;;;;7.03;2.20;;;;;;;;;;5109511;28;20486;-79
2022/04/01 07:37:31;;;;;;;5.95;2.50;;;;;;;;;;5109649;28;20052;-78
2022/04/01 07:40:18;;;;;;;6.68;2.22;;;;;;;;;;5108649;27;20222;-77
2022/04/01 07:42:45;;;;;;;6.25;2.30;;;;;;;;;;5108580;27;20052;-79
2022/04/01 07:45:11;;;;;;;6.72;2.15;;;;;;;;;;5107768;27;20082;-78
2022/04/01 07:47:38;;;;;;;5.05;2.10;;;;;;;;;;5109061;28;20417;-79
2022/04/01 07:50:04;;;;;;;5.28;2.05;;;;;;;;;;5091196;28;20058;-80
2022/04/01 07:52:32;;;;;;;5.57;2.03;;;;;;;;;;5109148;28;20109;-79
2022/04/01 07:54:58;;;;;;;4.50;1.98;;;;;;;;;;5109726;28;20103;-79
2022/04/01 07:57:24;;;;;;;4.95;1.80;;;;;;;;;;5108336;28;20048;-78
2022/04/01 07:59:51;;;;;;;4.93;2.05;;;;;;;;;;5089452;28;20056;-79
2022/04/01 08:02:17;;;;;;;4.72;1.70;;;;;;;;;;5088483;28;20055;-79
2022/04/01 08:04:44;;;;;;;5.93;1.50;;;;;;;;;;5100223;28;20106;-78
2022/04/01 08:07:13;;;;;;;5.97;1.73;;;;;;;;;;5107029;27;20553;-79
2022/04/01 08:09:40;;;;;;;6.90;1.77;;;;;;;;;;5109070;27;20056;-77
2022/04/01 08:12:08;;;;;;;3.33;1.27;;;;;;;;;;5104699;28;20052;-77
2022/04/01 08:14:36;;;;;;;12.25;2.30;;;;;;;;;;5088325;28;20059;-77
2022/04/01 08:17:03;;;;;;;4.53;1.75;;;;;;;;;;5103667;28;20106;-77
2022/04/01 08:19:30;;;;;;;4.55;1.40;;;;;;;;;;5088709;28;20052;-78
2022/04/01 08:21:57;;;;;;;5.50;1.65;;;;;;;;;;5086843;28;20110;-77
2022/04/01 08:24:24;;;;;;;5.25;1.50;;;;;;;;;;5099582;28;20054;-77
2022/04/01 08:26:52;;;;;;;4.93;1.50;;;;;;;;;;5085868;28;20056;-77
2022/04/01 08:29:18;;;;;;;4.00;1.48;;;;;;;;;;5088221;28;20098;-78
2022/04/01 08:31:45;;;;;;;5.00;1.65;;;;;;;;;;5104039;28;20082;-77
2022/04/01 08:34:11;;;;;;;5.32;1.30;;;;;;;;;;5105082;28;20506;-77
2022/04/01 08:36:39;;;;;;;4.20;1.38;;;;;;;;;;5087301;28;20060;-77
2022/04/01 08:39:06;;;;;;;4.35;1.20;;;;;;;;;;5087845;28;20052;-77
2022/04/01 08:41:32;;;;;;;5.00;1.33;;;;;;;;;;5091492;28;20720;-77
2022/04/01 08:43:59;;;;;;;4.53;1.40;;;;;;;;;;5104541;27;20079;-77
2022/04/01 08:46:25;;;;;;;4.75;1.35;;;;;;;;;;5087909;28;20056;-77
2022/04/01 08:48:53;;;;;;;3.08;1.15;;;;;;;;;;5089065;28;20059;-77
2022/04/01 08:51:20;;;;;;;5.97;1.67;;;;;;;;;;5101837;27;20056;-76
2022/04/01 08:53:47;;;;;;;3.15;1.10;;;;;;;;;;5087364;28;20056;-77
2022/04/01 08:56:14;;;;;;;5.47;1.10;;;;;;;;;;5093409;27;20709;-77
2022/04/01 08:58:43;;;;;;;2.80;1.00;;;;;;;;;;5108039;27;20044;-76
2022/04/01 09:01:09;;;;;;;5.20;1.27;;;;;;;;;;5107165;28;20056;-76
2022/04/01 09:03:36;;;;;;;4.28;1.40;;;;;;;;;;5088587;28;20094;-77
2022/04/01 09:06:04;;;;;;;4.55;1.08;;;;;;;;;;5108014;27;20056;-76
2022/04/01 09:08:40;;;;;;;3.75;1.30;;;;;;;;;;5090364;27;20056;-76
2022/04/01 09:11:06;;;;;;;4.93;1.05;;;;;;;;;;5109290;27;20052;-77
2022/04/01 09:13:47;;;;;;;7.90;1.30;;;;;;;;;;5106586;27;20053;-76
2022/04/01 09:16:36;;;;;;;3.30;1.42;;;;;;;;;;5109504;27;20075;-77
2022/04/01 09:19:04;;;;;;;3.00;1.20;;;;;;;;;;5098595;27;20067;-77
2022/04/01 09:21:31;;;;;;;4.03;1.45;;;;;;;;;;5108216;27;20106;-76
2022/04/01 09:23:59;;;;;;;4.97;1.60;;;;;;;;;;5108725;27;20052;-76
2022/04/01 09:26:30;;;;;;;3.28;1.45;;;;;;;;;;5108723;27;20047;-77
2022/04/01 09:28:57;;;;;;;6.15;1.90;;;;;;;;;;5089920;28;20499;-77
2022/04/01 09:31:33;;;;;;;5.23;1.70;;;;;;;;;;5089911;28;20056;-77
2022/04/01 09:34:10;;;;;;;4.43;1.63;;;;;;;;;;5097107;28;20870;-76
2022/04/01 09:36:37;;;;;;;4.20;1.40;;;;;;;;;;5107585;27;20174;-76
2022/04/01 09:39:03;;;;;;;3.92;1.52;;;;;;;;;;5091042;28;20121;-76
2022/04/01 09:41:32;;;;;;;3.67;1.60;;;;;;;;;;5089986;28;20056;-77
2022/04/01 09:44:26;;;;;;;6.40;1.77;;;;;;;;;;5088240;27;20534;-77
2022/04/01 09:46:57;;;;;;;3.60;1.60;;;;;;;;;;5106363;27;20109;-77
2022/04/01 09:49:56;;;;;;;5.57;2.33;;;;;;;;;;5109769;28;20588;-76
2022/04/01 09:52:25;;;;;;;4.88;1.58;;;;;;;;;;5051563;28;20091;-76
2022/04/01 09:54:53;;;;;;;5.25;2.15;;;;;;;;;;5104278;27;20113;-77
2022/04/01 09:57:20;;;;;;;5.15;1.98;;;;;;;;;;5109755;27;20056;-76
2022/04/01 09:59:48;;;;;;;6.63;2.15;;;;;;;;;;5095973;28;20045;-76
2022/04/01 10:02:14;;;;;;;5.28;1.83;;;;;;;;;;5108837;28;20569;-76
2022/04/01 10:04:40;;;;;;;4.50;2.10;;;;;;;;;;5090508;28;20056;-76
2022/04/01 10:07:07;;;;;;;4.53;1.70;;;;;;;;;;5102528;27;20045;-75
2022/04/01 10:09:34;;;;;;;5.45;1.95;;;;;;;;;;5093920;27;20059;-76
2022/04/01 10:12:23;;;;;;;6.05;1.98;;;;;;;;;;5091526;27;20044;-75
2022/04/01 10:14:54;;;;;;;5.18;1.85;;;;;;;;;;5089164;28;20062;-75
2022/04/01 10:17:26;;;;;;;7.55;2.03;;;;;;;;;;5091592;28;20052;-76
2022/04/01 10:19:53;;;;;;;4.55;1.83;;;;;;;;;;5102572;28;20515;-75
2022/04/01 10:22:20;;;;;;;5.00;2.03;;;;;;;;;;5082051;28;20057;-75
2022/04/01 10:24:52;;;;;;;6.20;2.22;;;;;;;;;;5090606;27;20057;-76
2022/04/01 10:27:26;;;;;;;8.95;2.30;;;;;;;;;;5092509;28;20130;-76
2022/04/01 10:29:56;;;;;;;7.35;2.40;;;;;;;;;;5088742;27;20133;-76
2022/04/01 10:32:42;;;;;;;7.70;3.00;;;;;;;;;;5090014;28;20104;-74
2022/04/01 10:35:21;;;;;;;6.10;2.30;;;;;;;;;;5088696;28;20059;-77
2022/04/01 10:37:52;;;;;;;6.95;2.60;;;;;;;;;;5105734;28;20051;-77
2022/04/01 10:40:18;;;;;;;6.70;2.80;;;;;;;;;;5099954;27;20087;-76
2022/04/01 10:42:46;;;;;;;6.25;2.60;;;;;;;;;;5091633;28;20140;-76
2022/04/01 10:45:15;;;;;;;4.70;2.38;;;;;;;;;;5109401;28;20048;-77
2022/04/01 10:53:33;;;;;;;6.45;2.90;;;;;;;;;;5098412;28;20123;-76
2022/04/01 10:56:19;;;;;;;7.78;2.45;;;;;;;;;;5094934;28;20098;-76
2022/04/01 10:59:04;;;;;;;5.93;2.88;;;;;;;;;;5098551;27;20080;-78
2022/04/01 11:01:31;;;;;;;6.30;2.72;;;;;;;;;;5095482;28;20055;-78
2022/04/01 11:04:07;;;;;;;7.40;3.13;;;;;;;;;;5111234;27;20055;-79
2022/04/01 11:06:49;;;;;;;8.05;3.47;;;;;;;;;;5094422;28;20060;-79
2022/04/01 11:09:34;;;;;;;8.10;3.20;;;;;;;;;;5106298;28;20032;-79
2022/04/01 11:12:19;;;;;;;6.55;3.10;;;;;;;;;;5095394;28;20125;-79
2022/04/01 11:15:28;;;;;;;6.97;2.92;;;;;;;;;;5112052;28;20130;-79
2022/04/01 11:17:47;;;;;;;7.57;3.40;;;;;;;;;;5110336;27;20201;-79
2022/04/01 11:20:22;;;;;;;7.72;3.70;;;;;;;;;;5112492;27;20895;-79
2022/04/01 11:23:00;;;;;;;7.90;3.60;;;;;;;;;;5114439;28;20087;-80
2022/04/01 11:25:33;;;;;;;7.53;3.65;;;;;;;;;;5093774;28;20048;-80
2022/04/01 11:28:16;;;;;;;9.38;3.88;;;;;;;;;;5096426;28;20056;-79
2022/04/01 11:30:44;;;;;;;7.55;3.38;;;;;;;;;;5108633;28;20040;-80
2022/04/01 11:33:10;;;;;;;7.68;4.15;;;;;;;;;;5096885;28;20082;-80
2022/04/01 11:35:39;;;;;;;8.20;3.90;;;;;;;;;;5093939;28;20106;-80
2022/04/01 11:41:47;;;;;;;8.35;3.88;;;;;;;;;;5108312;27;20036;-80
2022/04/01 11:44:15;;;;;;;8.25;4.13;;;;;;;;;;5094777;28;20052;-80
2022/04/01 11:46:41;;;;;;;7.95;3.70;;;;;;;;;;5113922;27;20101;-81
2022/04/01 11:49:09;;;;;;;6.75;3.67;;;;;;;;;;5115407;28;20754;-81
2022/04/01 11:51:37;;;;;;;8.02;3.80;;;;;;;;;;5111367;28;20049;-82
2022/04/01 11:54:03;;;;;;;9.25;4.20;;;;;;;;;;5093821;28;20052;-81
2022/04/01 11:56:30;;;;;;;6.75;3.90;;;;;;;;;;5111486;27;20052;-81
2022/04/01 11:59:04;;;;;;;7.45;3.92;;;;;;;;;;5111198;28;20048;-81
2022/04/01 12:01:31;;;;;;;7.80;4.75;;;;;;;;;;5092280;27;20125;-81
2022/04/01 12:04:14;;;;;;;9.00;4.78;;;;;;;;;;5110210;28;20055;-81
2022/04/01 12:09:29;;;;;;;8.82;4.50;;;;;;;;;;5109143;28;20129;-81
2022/04/01 12:12:01;;;;;;;8.25;4.55;;;;;;;;;;5091926;28;20048;-81
2022/04/01 12:14:29;;;;;;;8.77;4.65;;;;;;;;;;5110416;27;20060;-81
2022/04/01 12:16:55;;;;;;;8.45;4.50;;;;;;;;;;5092539;28;20856;-81
2022/04/01 12:19:22;;;;;;;10.77;4.68;;;;;;;;;;5108909;27;20056;-81
2022/04/01 12:21:55;;;;;;;7.38;4.18;;;;;;;;;;5108023;28;20056;-81
2022/04/01 12:24:25;;;;;;;10.23;4.97;;;;;;;;;;5103859;28;20057;-81
2022/04/01 12:26:51;;;;;;;8.93;4.63;;;;;;;;;;5091411;28;20060;-81
2022/04/01 12:29:22;;;;;;;7.78;4.50;;;;;;;;;;5091921;28;20101;-80
2022/04/01 12:31:49;;;;;;;7.82;4.40;;;;;;;;;;5087480;28;20098;-81
2022/04/01 12:34:16;;;;;;;8.07;4.53;;;;;;;;;;5108924;28;20048;-81
2022/04/01 12:36:50;;;;;;;10.07;4.07;;;;;;;;;;5091312;28;20048;-81
2022/04/01 12:39:17;;;;;;;8.02;4.40;;;;;;;;;;5098464;27;20145;-80
2022/04/01 12:41:50;;;;;;;7.43;4.13;;;;;;;;;;5108194;27;20056;-80
2022/04/01 12:44:24;;;;;;;6.90;4.00;;;;;;;;;;5109521;28;20078;-81
2022/04/01 12:46:51;;;;;;;7.97;4.13;;;;;;;;;;5109385;28;20599;-81
2022/04/01 12:49:27;;;;;;;7.88;4.40;;;;;;;;;;5096437;28;20075;-81
2022/04/01 12:52:04;;;;;;;7.25;4.30;;;;;;;;;;5072483;28;20049;-81
2022/04/01 12:54:39;;;;;;;7.78;4.30;;;;;;;;;;5093465;28;20125;-80
2022/04/01 12:57:11;;;;;;;6.15;3.55;;;;;;;;;;5110656;28;20133;-80
2022/04/01 12:59:39;;;;;;;6.32;3.35;;;;;;;;;;5091410;28;20048;-81
2022/04/01 13:02:07;;;;;;;7.18;3.70;;;;;;;;;;5109839;28;20052;-81
2022/04/01 13:04:37;;;;;;;6.93;3.40;;;;;;;;;;5092811;28;20051;-81
2022/04/01 13:07:08;;;;;;;8.00;3.92;;;;;;;;;;5109959;28;20040;-81
2022/04/01 13:09:48;;;;;;;6.30;4.10;;;;;;;;;;5092767;28;20048;-81
2022/04/01 13:12:15;;;;;;;9.50;3.60;;;;;;;;;;5110489;28;20056;-81
2022/04/01 13:14:42;;;;;;;9.82;4.50;;;;;;;;;;5107919;28;20536;-81
2022/04/01 13:17:10;;;;;;;8.02;3.67;;;;;;;;;;5108487;28;20063;-80
2022/04/01 13:19:38;;;;;;;6.18;3.47;;;;;;;;;;5090724;28;20098;-80
2022/04/01 13:22:05;;;;;;;6.72;3.85;;;;;;;;;;5090657;28;20055;-81
2022/04/01 13:24:39;;;;;;;5.22;3.33;;;;;;;;;;5091311;28;20048;-80
2022/04/01 13:27:06;;;;;;;6.28;3.40;;;;;;;;;;5091498;28;20121;-81
2022/04/01 13:29:33;;;;;;;5.97;2.88;;;;;;;;;;5108521;28;20048;-81
2022/04/01 13:31:59;;;;;;;6.00;3.03;;;;;;;;;;5107620;28;20149;-81
2022/04/01 13:34:26;;;;;;;6.93;2.55;;;;;;;;;;5090720;28;20032;-81
2022/04/01 13:36:52;;;;;;;6.15;2.60;;;;;;;;;;5091065;28;20205;-81
2022/04/01 13:39:19;;;;;;;5.47;2.45;;;;;;;;;;5073918;27;20056;-81
2022/04/01 13:41:45;;;;;;;5.93;2.05;;;;;;;;;;5108683;27;20056;-81
2022/04/01 13:44:11;;;;;;;6.05;2.67;;;;;;;;;;5110873;28;20056;-81
2022/04/01 13:46:38;;;;;;;7.75;2.28;;;;;;;;;;5094513;28;20125;-81
2022/04/01 13:49:05;;;;;;;4.30;2.35;;;;;;;;;;5112713;28;20075;-80
2022/04/01 13:51:36;;;;;;;5.13;2.22;;;;;;;;;;5113123;28;20803;-81
2022/04/01 13:54:02;;;;;;;5.07;2.10;;;;;;;;;;5094127;28;20082;-81
2022/04/01 13:56:30;;;;;;;5.88;2.65;;;;;;;;;;5112401;28;20048;-80
2022/04/01 13:58:56;;;;;;;5.90;2.22;;;;;;;;;;5111946;28;20053;-81
2022/04/01 14:01:22;;;;;;;7.13;2.85;;;;;;;;;;5111355;28;20048;-81
2022/04/01 14:03:49;;;;;;;4.13;2.08;;;;;;;;;;5111959;28;20086;-81
2022/04/01 14:06:16;;;;;;;8.30;1.77;;;;;;;;;;5104934;28;20165;-81
2022/04/01 14:08:42;;;;;;;4.90;1.83;;;;;;;;;;5094501;28;20056;-80
2022/04/01 14:11:09;;;;;;;5.20;2.20;;;;;;;;;;5093716;28;20067;-80
2022/04/01 14:13:36;;;;;;;4.53;1.80;;;;;;;;;;5113706;28;20040;-81
2022/04/01 14:16:17;;;;;;;7.60;1.90;;;;;;;;;;5110901;28;20054;-80
2022/04/01 14:18:44;;;;;;;4.30;1.80;;;;;;;;;;5095158;28;20059;-80
2022/04/01 14:21:11;;;;;;;5.25;2.20;;;;;;;;;;5106364;28;20075;-80
2022/04/01 14:23:37;;;;;;;4.28;1.90;;;;;;;;;;5111062;28;20052;-81
2022/04/01 14:26:08;;;;;;;3.50;1.65;;;;;;;;;;5112809;28;20090;-81
2022/04/01 14:28:35;;;;;;;4.30;1.80;;;;;;;;;;5093588;28;20088;-81
2022/04/01 14:31:02;;;;;;;4.63;1.65;;;;;;;;;;5109237;28;20106;-81
2022/04/01 14:33:29;;;;;;;4.25;1.58;;;;;;;;;;5111864;28;20113;-80
2022/04/01 14:35:55;;;;;;;3.35;1.40;;;;;;;;;;5112859;28;20056;-81
2022/04/01 14:38:22;;;;;;;4.93;1.60;;;;;;;;;;5110652;28;20037;-80
2022/04/01 14:41:07;;;;;;;4.43;1.30;;;;;;;;;;5111077;27;20060;-81
2022/04/01 14:43:34;;;;;;;5.07;2.70;;;;;;;;;;5108646;27;20079;-81
2022/04/01 14:46:00;;;;;;;3.38;1.27;;;;;;;;;;5111542;27;20644;-81
2022/04/01 14:48:26;;;;;;;4.10;1.60;;;;;;;;;;5131803;27;20911;-81
2022/04/01 14:50:53;;;;;;;4.45;1.65;;;;;;;;;;5125202;27;20044;-81
2022/04/01 14:53:24;;;;;;;;;;;;;;;;;;5095287;27;20091;-81
2022/04/01 14:55:50;;;;;;;5.53;1.60;;;;;;;;;;5093352;28;43849;-81
2022/04/01 14:58:16;;;;;;;4.70;1.60;;;;;;;;;;5111996;28;20584;-80
2022/04/01 15:00:44;;;;;;;3.88;1.45;;;;;;;;;;5111505;28;20141;-81
2022/04/01 15:03:10;;;;;;;4.40;1.60;;;;;;;;;;5092996;28;20054;-81
2022/04/01 15:05:37;;;;;;;4.70;1.40;;;;;;;;;;5112220;28;20044;-81
2022/04/01 15:08:05;;;;;;;6.05;1.60;;;;;;;;;;5112180;28;20040;-80
2022/04/01 15:10:32;;;;;;;5.47;1.50;;;;;;;;;;5111044;28;20141;-81
2022/04/01 15:12:58;;;;;;;4.15;1.35;;;;;;;;;;5093481;28;20052;-81